sensor_id;sensor_type;location;lat;lon;timestamp;temperature;humidity
46029;DHT22;31763;48.180;7.904;2023-11-21T00:02:27;7.00;99.90
46029;DHT22;31763;48.180;7.904;2023-11-21T00:04:54;7.00;99.90
46029;DHT22;31763;48.180;7.904;2023-11-21T00:07:21;7.00;99.90
46029;DHT22;31763;48.180;7.904;2023-11-21T00:09:48;7.00;99.90
46029;DHT22;31763;48.180;7.904;2023-11-21T00:12:15;7.10;99.90
46029;DHT22;31763;48.180;7.904;2023-11-21T00:14:42;7.00;99.90
46029;DHT22;31763;48.180;7.904;2023-11-21T00:17:09;7.10;99.90
46029;DHT22;31763;48.180;7.904;2023-11-21T00:19:36;7.00;99.90
46029;DHT22;31763;48.180;7.904;2023-11-21T00:22:03;7.00;99.90
46029;DHT22;31763;48.180;7.904;2023-11-21T00:24:30;7.00;99.90
46029;DHT22;31763;48.180;7.904;2023-11-21T00:26:58;7.00;99.90
46029;DHT22;31763;48.180;7.904;2023-11-21T00:29:25;7.00;99.90
46029;DHT22;31763;48.180;7.904;2023-11-21T00:31:52;7.00;99.90
46029;DHT22;31763;48.180;7.904;2023-11-21T00:34:20;7.00;99.90
46029;DHT22;31763;48.180;7.904;2023-11-21T00:36:46;7.00;99.90
46029;DHT22;31763;48.180;7.904;2023-11-21T00:39:13;7.00;99.90
46029;DHT22;31763;48.180;7.904;2023-11-21T00:41:40;6.90;99.90
46029;DHT22;31763;48.180;7.904;2023-11-21T00:44:08;7.00;99.90
46029;DHT22;31763;48.180;7.904;2023-11-21T00:46:35;7.00;99.90
46029;DHT22;31763;48.180;7.904;2023-11-21T00:49:02;7.00;99.90
46029;DHT22;31763;48.180;7.904;2023-11-21T00:51:30;6.90;99.90
46029;DHT22;31763;48.180;7.904;2023-11-21T00:53:58;6.90;99.90
46029;DHT22;31763;48.180;7.904;2023-11-21T00:56:25;7.00;99.90
46029;DHT22;31763;48.180;7.904;2023-11-21T00:58:51;7.00;99.90
46029;DHT22;31763;48.180;7.904;2023-11-21T01:01:19;6.90;99.90
46029;DHT22;31763;48.180;7.904;2023-11-21T01:03:47;6.90;99.90
46029;DHT22;31763;48.180;7.904;2023-11-21T01:06:17;7.00;99.90
46029;DHT22;31763;48.180;7.904;2023-11-21T01:08:44;7.00;99.90
46029;DHT22;31763;48.180;7.904;2023-11-21T01:11:11;7.00;99.90
46029;DHT22;31763;48.180;7.904;2023-11-21T01:13:41;6.90;99.90
46029;DHT22;31763;48.180;7.904;2023-11-21T01:16:09;6.90;99.90
46029;DHT22;31763;48.180;7.904;2023-11-21T01:18:36;6.90;99.90
46029;DHT22;31763;48.180;7.904;2023-11-21T01:21:03;6.90;99.90
46029;DHT22;31763;48.180;7.904;2023-11-21T01:23:30;6.90;99.90
46029;DHT22;31763;48.180;7.904;2023-11-21T01:25:57;6.90;99.90
46029;DHT22;31763;48.180;7.904;2023-11-21T01:28:24;6.90;99.90
46029;DHT22;31763;48.180;7.904;2023-11-21T01:30:51;6.80;99.90
46029;DHT22;31763;48.180;7.904;2023-11-21T01:33:19;6.80;99.90
46029;DHT22;31763;48.180;7.904;2023-11-21T01:35:46;6.80;99.90
46029;DHT22;31763;48.180;7.904;2023-11-21T01:38:13;6.80;99.90
46029;DHT22;31763;48.180;7.904;2023-11-21T01:40:41;6.80;99.90
46029;DHT22;31763;48.180;7.904;2023-11-21T01:43:08;6.80;99.90
46029;DHT22;31763;48.180;7.904;2023-11-21T01:45:35;6.80;99.90
46029;DHT22;31763;48.180;7.904;2023-11-21T01:48:03;6.80;99.90
46029;DHT22;31763;48.180;7.904;2023-11-21T01:50:30;6.80;99.90
46029;DHT22;31763;48.180;7.904;2023-11-21T01:52:57;6.80;99.90
46029;DHT22;31763;48.180;7.904;2023-11-21T01:55:24;6.80;99.90
46029;DHT22;31763;48.180;7.904;2023-11-21T01:57:55;6.80;99.90
46029;DHT22;31763;48.180;7.904;2023-11-21T02:00:23;6.70;99.90
46029;DHT22;31763;48.180;7.904;2023-11-21T02:02:50;6.80;99.90
46029;DHT22;31763;48.180;7.904;2023-11-21T02:05:19;6.80;99.90
46029;DHT22;31763;48.180;7.904;2023-11-21T02:07:46;6.70;99.90
46029;DHT22;31763;48.180;7.904;2023-11-21T02:10:15;6.70;99.90
46029;DHT22;31763;48.180;7.904;2023-11-21T02:12:43;6.70;99.90
46029;DHT22;31763;48.180;7.904;2023-11-21T02:15:15;6.70;99.90
46029;DHT22;31763;48.180;7.904;2023-11-21T02:17:50;6.70;99.90
46029;DHT22;31763;48.180;7.904;2023-11-21T02:20:21;6.70;99.90
46029;DHT22;31763;48.180;7.904;2023-11-21T02:22:52;6.80;99.90
46029;DHT22;31763;48.180;7.904;2023-11-21T02:25:30;6.70;99.90
46029;DHT22;31763;48.180;7.904;2023-11-21T02:28:00;6.60;99.90
46029;DHT22;31763;48.180;7.904;2023-11-21T02:30:28;6.70;99.90
46029;DHT22;31763;48.180;7.904;2023-11-21T02:32:57;6.70;99.90
46029;DHT22;31763;48.180;7.904;2023-11-21T02:35:24;6.60;99.90
46029;DHT22;31763;48.180;7.904;2023-11-21T02:37:53;6.70;99.90
46029;DHT22;31763;48.180;7.904;2023-11-21T02:40:20;6.70;99.90
46029;DHT22;31763;48.180;7.904;2023-11-21T02:43:09;6.70;99.90
46029;DHT22;31763;48.180;7.904;2023-11-21T02:45:59;6.70;99.90
46029;DHT22;31763;48.180;7.904;2023-11-21T02:48:55;6.70;99.90
46029;DHT22;31763;48.180;7.904;2023-11-21T02:51:22;6.70;99.90
46029;DHT22;31763;48.180;7.904;2023-11-21T02:53:49;6.60;99.90
46029;DHT22;31763;48.180;7.904;2023-11-21T02:56:17;6.70;99.90
46029;DHT22;31763;48.180;7.904;2023-11-21T02:58:44;6.80;99.90
46029;DHT22;31763;48.180;7.904;2023-11-21T03:01:11;6.70;99.90
46029;DHT22;31763;48.180;7.904;2023-11-21T03:03:39;6.60;99.90
46029;DHT22;31763;48.180;7.904;2023-11-21T03:06:07;6.70;99.90
46029;DHT22;31763;48.180;7.904;2023-11-21T03:08:35;6.60;99.90
46029;DHT22;31763;48.180;7.904;2023-11-21T03:11:02;6.70;99.90
46029;DHT22;31763;48.180;7.904;2023-11-21T03:13:31;6.70;99.90
46029;DHT22;31763;48.180;7.904;2023-11-21T03:15:58;6.70;99.90
46029;DHT22;31763;48.180;7.904;2023-11-21T03:18:25;6.60;99.90
46029;DHT22;31763;48.180;7.904;2023-11-21T03:20:52;6.60;99.90
46029;DHT22;31763;48.180;7.904;2023-11-21T03:23:19;6.60;99.90
46029;DHT22;31763;48.180;7.904;2023-11-21T03:25:46;6.60;99.90
46029;DHT22;31763;48.180;7.904;2023-11-21T03:28:13;6.60;99.90
46029;DHT22;31763;48.180;7.904;2023-11-21T03:30:40;6.60;99.90
46029;DHT22;31763;48.180;7.904;2023-11-21T03:33:07;6.50;99.90
46029;DHT22;31763;48.180;7.904;2023-11-21T03:35:34;6.50;99.90
46029;DHT22;31763;48.180;7.904;2023-11-21T03:38:01;6.50;99.90
46029;DHT22;31763;48.180;7.904;2023-11-21T03:40:28;6.50;99.90
46029;DHT22;31763;48.180;7.904;2023-11-21T03:42:55;6.50;99.90
46029;DHT22;31763;48.180;7.904;2023-11-21T03:45:22;6.50;99.90
46029;DHT22;31763;48.180;7.904;2023-11-21T03:47:50;6.50;99.90
46029;DHT22;31763;48.180;7.904;2023-11-21T03:50:17;6.50;99.90
46029;DHT22;31763;48.180;7.904;2023-11-21T03:52:43;6.50;99.90
46029;DHT22;31763;48.180;7.904;2023-11-21T03:55:11;6.60;99.90
46029;DHT22;31763;48.180;7.904;2023-11-21T03:57:38;6.50;99.90
46029;DHT22;31763;48.180;7.904;2023-11-21T04:00:05;6.50;99.90
46029;DHT22;31763;48.180;7.904;2023-11-21T04:02:35;6.40;99.90
46029;DHT22;31763;48.180;7.904;2023-11-21T04:05:02;6.40;99.90
46029;DHT22;31763;48.180;7.904;2023-11-21T04:07:30;6.40;99.90
46029;DHT22;31763;48.180;7.904;2023-11-21T04:09:56;6.40;99.90
46029;DHT22;31763;48.180;7.904;2023-11-21T04:12:23;6.40;99.90
46029;DHT22;31763;48.180;7.904;2023-11-21T04:14:50;6.40;99.90
46029;DHT22;31763;48.180;7.904;2023-11-21T04:17:20;6.40;99.90
46029;DHT22;31763;48.180;7.904;2023-11-21T04:19:47;6.40;99.90
46029;DHT22;31763;48.180;7.904;2023-11-21T04:22:14;6.40;99.90
46029;DHT22;31763;48.180;7.904;2023-11-21T04:24:41;6.40;99.90
46029;DHT22;31763;48.180;7.904;2023-11-21T04:27:08;6.40;99.90
46029;DHT22;31763;48.180;7.904;2023-11-21T04:29:34;6.40;99.90
46029;DHT22;31763;48.180;7.904;2023-11-21T04:32:01;6.40;99.90
46029;DHT22;31763;48.180;7.904;2023-11-21T04:34:29;6.40;99.90
46029;DHT22;31763;48.180;7.904;2023-11-21T04:36:57;6.40;99.90
46029;DHT22;31763;48.180;7.904;2023-11-21T04:39:24;6.40;99.90
46029;DHT22;31763;48.180;7.904;2023-11-21T04:41:51;6.40;99.90
46029;DHT22;31763;48.180;7.904;2023-11-21T04:44:18;6.40;99.90
46029;DHT22;31763;48.180;7.904;2023-11-21T04:46:44;6.40;99.90
46029;DHT22;31763;48.180;7.904;2023-11-21T04:49:11;6.40;99.90
46029;DHT22;31763;48.180;7.904;2023-11-21T04:51:38;6.40;99.90
46029;DHT22;31763;48.180;7.904;2023-11-21T04:54:05;6.40;99.90
46029;DHT22;31763;48.180;7.904;2023-11-21T04:56:32;6.40;99.90
46029;DHT22;31763;48.180;7.904;2023-11-21T04:58:59;6.40;99.90
46029;DHT22;31763;48.180;7.904;2023-11-21T05:01:26;6.40;99.90
46029;DHT22;31763;48.180;7.904;2023-11-21T05:03:53;6.40;99.90
46029;DHT22;31763;48.180;7.904;2023-11-21T05:06:20;6.40;99.90
46029;DHT22;31763;48.180;7.904;2023-11-21T05:08:47;6.30;99.90
46029;DHT22;31763;48.180;7.904;2023-11-21T05:11:24;6.30;99.90
46029;DHT22;31763;48.180;7.904;2023-11-21T05:13:54;6.30;99.90
46029;DHT22;31763;48.180;7.904;2023-11-21T05:16:24;6.30;99.90
46029;DHT22;31763;48.180;7.904;2023-11-21T05:18:52;6.30;99.90
46029;DHT22;31763;48.180;7.904;2023-11-21T05:21:19;6.30;99.90
46029;DHT22;31763;48.180;7.904;2023-11-21T05:23:47;6.30;99.90
46029;DHT22;31763;48.180;7.904;2023-11-21T05:26:14;6.30;99.90
46029;DHT22;31763;48.180;7.904;2023-11-21T05:28:41;6.30;99.90
46029;DHT22;31763;48.180;7.904;2023-11-21T05:31:08;6.30;99.90
46029;DHT22;31763;48.180;7.904;2023-11-21T05:33:42;6.30;99.90
46029;DHT22;31763;48.180;7.904;2023-11-21T05:36:09;6.30;99.90
46029;DHT22;31763;48.180;7.904;2023-11-21T05:38:36;6.30;99.90
46029;DHT22;31763;48.180;7.904;2023-11-21T05:41:03;6.30;99.90
46029;DHT22;31763;48.180;7.904;2023-11-21T05:43:31;6.30;99.90
46029;DHT22;31763;48.180;7.904;2023-11-21T05:45:59;6.30;99.90
46029;DHT22;31763;48.180;7.904;2023-11-21T05:48:26;6.30;99.90
46029;DHT22;31763;48.180;7.904;2023-11-21T05:50:53;6.30;99.90
46029;DHT22;31763;48.180;7.904;2023-11-21T05:53:20;6.20;99.90
46029;DHT22;31763;48.180;7.904;2023-11-21T05:55:48;6.20;99.90
46029;DHT22;31763;48.180;7.904;2023-11-21T05:58:15;6.20;99.90
46029;DHT22;31763;48.180;7.904;2023-11-21T06:00:42;6.20;99.90
46029;DHT22;31763;48.180;7.904;2023-11-21T06:03:09;6.20;99.90
46029;DHT22;31763;48.180;7.904;2023-11-21T06:05:36;6.30;99.90
46029;DHT22;31763;48.180;7.904;2023-11-21T06:08:03;6.20;99.90
46029;DHT22;31763;48.180;7.904;2023-11-21T06:10:30;6.20;99.90
46029;DHT22;31763;48.180;7.904;2023-11-21T06:12:57;6.20;99.90
46029;DHT22;31763;48.180;7.904;2023-11-21T06:15:29;6.20;99.90
46029;DHT22;31763;48.180;7.904;2023-11-21T06:17:56;6.20;99.90
46029;DHT22;31763;48.180;7.904;2023-11-21T06:20:23;6.20;99.90
46029;DHT22;31763;48.180;7.904;2023-11-21T06:22:51;6.20;99.90
46029;DHT22;31763;48.180;7.904;2023-11-21T06:25:18;6.10;99.90
46029;DHT22;31763;48.180;7.904;2023-11-21T06:27:47;6.20;99.90
46029;DHT22;31763;48.180;7.904;2023-11-21T06:30:15;6.10;99.90
46029;DHT22;31763;48.180;7.904;2023-11-21T06:32:42;6.20;99.90
46029;DHT22;31763;48.180;7.904;2023-11-21T06:35:14;6.20;99.90
46029;DHT22;31763;48.180;7.904;2023-11-21T06:37:42;6.20;99.90
46029;DHT22;31763;48.180;7.904;2023-11-21T06:40:14;6.20;99.90
46029;DHT22;31763;48.180;7.904;2023-11-21T06:42:41;6.30;99.90
46029;DHT22;31763;48.180;7.904;2023-11-21T06:45:08;6.20;99.90
46029;DHT22;31763;48.180;7.904;2023-11-21T06:47:38;6.20;99.90
46029;DHT22;31763;48.180;7.904;2023-11-21T06:50:05;6.20;99.90
46029;DHT22;31763;48.180;7.904;2023-11-21T06:52:33;6.10;99.90
46029;DHT22;31763;48.180;7.904;2023-11-21T06:55:01;6.20;99.90
46029;DHT22;31763;48.180;7.904;2023-11-21T06:57:28;6.20;99.90
46029;DHT22;31763;48.180;7.904;2023-11-21T06:59:54;6.30;99.90
46029;DHT22;31763;48.180;7.904;2023-11-21T07:02:24;6.30;99.90
46029;DHT22;31763;48.180;7.904;2023-11-21T07:04:51;6.30;99.90
46029;DHT22;31763;48.180;7.904;2023-11-21T07:07:18;6.30;99.90
46029;DHT22;31763;48.180;7.904;2023-11-21T07:09:46;6.20;99.90
46029;DHT22;31763;48.180;7.904;2023-11-21T07:12:14;6.30;99.90
46029;DHT22;31763;48.180;7.904;2023-11-21T07:14:41;6.30;99.90
46029;DHT22;31763;48.180;7.904;2023-11-21T07:17:10;6.30;99.90
46029;DHT22;31763;48.180;7.904;2023-11-21T07:19:38;6.30;99.90
46029;DHT22;31763;48.180;7.904;2023-11-21T07:22:06;6.40;99.90
46029;DHT22;31763;48.180;7.904;2023-11-21T07:24:32;6.30;99.90
46029;DHT22;31763;48.180;7.904;2023-11-21T07:26:59;6.30;99.90
46029;DHT22;31763;48.180;7.904;2023-11-21T07:29:27;6.40;99.90
46029;DHT22;31763;48.180;7.904;2023-11-21T07:31:56;6.40;99.90
46029;DHT22;31763;48.180;7.904;2023-11-21T07:34:23;6.60;99.90
46029;DHT22;31763;48.180;7.904;2023-11-21T07:36:50;7.00;99.90
46029;DHT22;31763;48.180;7.904;2023-11-21T07:39:17;6.70;99.90
46029;DHT22;31763;48.180;7.904;2023-11-21T07:41:44;6.70;99.90
46029;DHT22;31763;48.180;7.904;2023-11-21T07:44:16;6.60;99.90
46029;DHT22;31763;48.180;7.904;2023-11-21T07:46:44;6.40;99.90
46029;DHT22;31763;48.180;7.904;2023-11-21T07:49:11;6.30;99.90
46029;DHT22;31763;48.180;7.904;2023-11-21T07:51:43;6.30;99.90
46029;DHT22;31763;48.180;7.904;2023-11-21T07:54:10;6.30;99.90
46029;DHT22;31763;48.180;7.904;2023-11-21T07:56:37;6.30;99.90
46029;DHT22;31763;48.180;7.904;2023-11-21T07:59:04;6.30;99.90
46029;DHT22;31763;48.180;7.904;2023-11-21T08:01:31;6.30;99.90
46029;DHT22;31763;48.180;7.904;2023-11-21T08:03:58;6.40;99.90
46029;DHT22;31763;48.180;7.904;2023-11-21T08:06:30;6.30;99.90
46029;DHT22;31763;48.180;7.904;2023-11-21T08:08:57;6.30;99.90
46029;DHT22;31763;48.180;7.904;2023-11-21T08:11:24;6.40;99.90
46029;DHT22;31763;48.180;7.904;2023-11-21T08:13:52;6.30;99.90
46029;DHT22;31763;48.180;7.904;2023-11-21T08:16:21;6.30;99.90
46029;DHT22;31763;48.180;7.904;2023-11-21T08:18:47;6.30;99.90
46029;DHT22;31763;48.180;7.904;2023-11-21T08:21:14;6.30;99.90
46029;DHT22;31763;48.180;7.904;2023-11-21T08:23:41;6.40;99.90
46029;DHT22;31763;48.180;7.904;2023-11-21T08:26:08;6.30;99.90
46029;DHT22;31763;48.180;7.904;2023-11-21T08:28:35;6.30;99.90
46029;DHT22;31763;48.180;7.904;2023-11-21T08:31:02;6.30;99.90
46029;DHT22;31763;48.180;7.904;2023-11-21T08:33:31;6.50;99.90
46029;DHT22;31763;48.180;7.904;2023-11-21T08:35:57;6.40;99.90
46029;DHT22;31763;48.180;7.904;2023-11-21T08:38:24;6.30;99.90
46029;DHT22;31763;48.180;7.904;2023-11-21T08:40:51;6.50;99.90
46029;DHT22;31763;48.180;7.904;2023-11-21T08:43:18;6.40;99.90
46029;DHT22;31763;48.180;7.904;2023-11-21T08:45:46;6.40;99.90
46029;DHT22;31763;48.180;7.904;2023-11-21T08:48:13;6.50;99.90
46029;DHT22;31763;48.180;7.904;2023-11-21T08:50:40;6.50;99.90
46029;DHT22;31763;48.180;7.904;2023-11-21T08:53:07;6.50;99.90
46029;DHT22;31763;48.180;7.904;2023-11-21T08:55:34;6.40;99.90
46029;DHT22;31763;48.180;7.904;2023-11-21T08:58:04;6.40;99.90
46029;DHT22;31763;48.180;7.904;2023-11-21T09:00:32;6.60;99.90
46029;DHT22;31763;48.180;7.904;2023-11-21T09:03:01;6.60;99.90
46029;DHT22;31763;48.180;7.904;2023-11-21T09:05:28;6.60;99.90
46029;DHT22;31763;48.180;7.904;2023-11-21T09:07:56;6.60;99.90
46029;DHT22;31763;48.180;7.904;2023-11-21T09:10:23;6.60;99.90
46029;DHT22;31763;48.180;7.904;2023-11-21T09:12:52;6.80;99.90
46029;DHT22;31763;48.180;7.904;2023-11-21T09:15:19;6.90;99.90
46029;DHT22;31763;48.180;7.904;2023-11-21T09:17:47;6.80;99.90
46029;DHT22;31763;48.180;7.904;2023-11-21T09:20:14;6.80;99.90
46029;DHT22;31763;48.180;7.904;2023-11-21T09:22:42;6.80;99.90
46029;DHT22;31763;48.180;7.904;2023-11-21T09:25:11;6.60;99.90
46029;DHT22;31763;48.180;7.904;2023-11-21T09:27:39;6.60;99.90
46029;DHT22;31763;48.180;7.904;2023-11-21T09:30:07;6.60;99.90
46029;DHT22;31763;48.180;7.904;2023-11-21T09:32:40;6.70;99.90
46029;DHT22;31763;48.180;7.904;2023-11-21T09:35:08;6.80;99.90
46029;DHT22;31763;48.180;7.904;2023-11-21T09:37:35;6.70;99.90
46029;DHT22;31763;48.180;7.904;2023-11-21T09:40:02;6.70;99.90
46029;DHT22;31763;48.180;7.904;2023-11-21T09:42:40;6.80;99.90
46029;DHT22;31763;48.180;7.904;2023-11-21T09:45:39;6.90;99.90
46029;DHT22;31763;48.180;7.904;2023-11-21T09:48:07;6.80;99.90
46029;DHT22;31763;48.180;7.904;2023-11-21T09:50:36;6.60;99.90
46029;DHT22;31763;48.180;7.904;2023-11-21T09:53:22;6.60;99.90
46029;DHT22;31763;48.180;7.904;2023-11-21T09:55:53;6.60;99.90
46029;DHT22;31763;48.180;7.904;2023-11-21T09:58:20;6.70;99.90
46029;DHT22;31763;48.180;7.904;2023-11-21T10:00:53;6.80;99.90
46029;DHT22;31763;48.180;7.904;2023-11-21T10:03:22;6.70;99.90
46029;DHT22;31763;48.180;7.904;2023-11-21T10:05:50;6.70;99.90
46029;DHT22;31763;48.180;7.904;2023-11-21T10:08:20;6.70;99.90
46029;DHT22;31763;48.180;7.904;2023-11-21T10:10:51;6.60;99.90
46029;DHT22;31763;48.180;7.904;2023-11-21T10:13:20;6.70;99.90
46029;DHT22;31763;48.180;7.904;2023-11-21T10:15:50;6.80;99.90
46029;DHT22;31763;48.180;7.904;2023-11-21T10:18:18;6.80;99.90
46029;DHT22;31763;48.180;7.904;2023-11-21T10:20:45;6.70;99.90
46029;DHT22;31763;48.180;7.904;2023-11-21T10:23:21;6.80;99.90
46029;DHT22;31763;48.180;7.904;2023-11-21T10:25:51;6.60;99.90
46029;DHT22;31763;48.180;7.904;2023-11-21T10:28:19;6.70;99.90
46029;DHT22;31763;48.180;7.904;2023-11-21T10:30:47;6.70;99.90
46029;DHT22;31763;48.180;7.904;2023-11-21T10:33:14;6.60;99.90
46029;DHT22;31763;48.180;7.904;2023-11-21T10:38:08;6.60;99.90
46029;DHT22;31763;48.180;7.904;2023-11-21T10:40:40;6.80;99.90
46029;DHT22;31763;48.180;7.904;2023-11-21T10:43:09;6.80;99.90
46029;DHT22;31763;48.180;7.904;2023-11-21T10:45:40;6.80;99.90
46029;DHT22;31763;48.180;7.904;2023-11-21T10:48:12;6.70;99.90
46029;DHT22;31763;48.180;7.904;2023-11-21T10:50:45;6.80;99.90
46029;DHT22;31763;48.180;7.904;2023-11-21T10:53:13;6.80;99.90
46029;DHT22;31763;48.180;7.904;2023-11-21T10:55:40;6.90;99.90
46029;DHT22;31763;48.180;7.904;2023-11-21T10:58:08;6.80;99.90
46029;DHT22;31763;48.180;7.904;2023-11-21T11:00:37;6.80;99.90
46029;DHT22;31763;48.180;7.904;2023-11-21T11:03:07;6.80;99.90
46029;DHT22;31763;48.180;7.904;2023-11-21T11:05:43;6.80;99.90
46029;DHT22;31763;48.180;7.904;2023-11-21T11:08:21;6.80;99.90
46029;DHT22;31763;48.180;7.904;2023-11-21T11:10:54;6.90;99.90
46029;DHT22;31763;48.180;7.904;2023-11-21T11:13:21;6.80;99.90
46029;DHT22;31763;48.180;7.904;2023-11-21T11:15:49;7.00;99.90
46029;DHT22;31763;48.180;7.904;2023-11-21T11:18:17;7.10;99.90
46029;DHT22;31763;48.180;7.904;2023-11-21T11:20:45;7.10;99.90
46029;DHT22;31763;48.180;7.904;2023-11-21T11:26:48;7.10;99.90
46029;DHT22;31763;48.180;7.904;2023-11-21T11:32:35;7.10;99.90
46029;DHT22;31763;48.180;7.904;2023-11-21T11:35:10;7.30;99.90
46029;DHT22;31763;48.180;7.904;2023-11-21T11:37:45;7.30;99.90
46029;DHT22;31763;48.180;7.904;2023-11-21T11:40:39;7.20;99.90
46029;DHT22;31763;48.180;7.904;2023-11-21T11:55:35;7.30;99.90
46029;DHT22;31763;48.180;7.904;2023-11-21T11:58:06;7.30;99.90
46029;DHT22;31763;48.180;7.904;2023-11-21T12:00:34;7.30;99.90
46029;DHT22;31763;48.180;7.904;2023-11-21T12:03:06;7.40;99.90
46029;DHT22;31763;48.180;7.904;2023-11-21T12:05:35;7.30;99.90
46029;DHT22;31763;48.180;7.904;2023-11-21T12:08:04;7.30;99.90
46029;DHT22;31763;48.180;7.904;2023-11-21T12:10:37;7.20;99.90
46029;DHT22;31763;48.180;7.904;2023-11-21T12:13:06;7.20;99.90
46029;DHT22;31763;48.180;7.904;2023-11-21T12:15:35;7.20;99.90
46029;DHT22;31763;48.180;7.904;2023-11-21T12:18:04;7.30;99.90
46029;DHT22;31763;48.180;7.904;2023-11-21T12:20:32;7.30;99.90
46029;DHT22;31763;48.180;7.904;2023-11-21T12:23:05;7.20;99.90
46029;DHT22;31763;48.180;7.904;2023-11-21T12:25:32;7.20;99.90
46029;DHT22;31763;48.180;7.904;2023-11-21T12:28:01;7.30;99.90
46029;DHT22;31763;48.180;7.904;2023-11-21T12:30:31;7.20;99.90
46029;DHT22;31763;48.180;7.904;2023-11-21T12:33:00;7.20;99.90
46029;DHT22;31763;48.180;7.904;2023-11-21T12:35:28;7.10;99.90
46029;DHT22;31763;48.180;7.904;2023-11-21T12:37:57;7.20;99.90
46029;DHT22;31763;48.180;7.904;2023-11-21T12:40:25;7.20;99.90
46029;DHT22;31763;48.180;7.904;2023-11-21T12:42:54;7.20;99.90
46029;DHT22;31763;48.180;7.904;2023-11-21T12:45:23;7.20;99.90
46029;DHT22;31763;48.180;7.904;2023-11-21T12:47:55;7.20;99.90
46029;DHT22;31763;48.180;7.904;2023-11-21T12:50:27;7.20;99.90
46029;DHT22;31763;48.180;7.904;2023-11-21T12:53:01;7.30;99.90
46029;DHT22;31763;48.180;7.904;2023-11-21T12:55:31;7.90;99.90
46029;DHT22;31763;48.180;7.904;2023-11-21T12:58:01;7.70;99.90
46029;DHT22;31763;48.180;7.904;2023-11-21T13:00:46;7.70;99.90
46029;DHT22;31763;48.180;7.904;2023-11-21T13:03:15;7.70;99.90
46029;DHT22;31763;48.180;7.904;2023-11-21T13:05:47;7.80;99.90
46029;DHT22;31763;48.180;7.904;2023-11-21T13:08:20;7.90;99.90
46029;DHT22;31763;48.180;7.904;2023-11-21T13:10:54;7.90;99.90
46029;DHT22;31763;48.180;7.904;2023-11-21T13:13:24;7.90;99.90
46029;DHT22;31763;48.180;7.904;2023-11-21T13:16:04;7.90;99.90
46029;DHT22;31763;48.180;7.904;2023-11-21T13:18:32;7.90;99.90
46029;DHT22;31763;48.180;7.904;2023-11-21T13:21:01;8.30;99.90
46029;DHT22;31763;48.180;7.904;2023-11-21T13:23:36;8.20;99.90
46029;DHT22;31763;48.180;7.904;2023-11-21T13:26:05;8.00;99.90
46029;DHT22;31763;48.180;7.904;2023-11-21T13:28:33;7.90;99.90
46029;DHT22;31763;48.180;7.904;2023-11-21T13:31:03;7.90;99.90
46029;DHT22;31763;48.180;7.904;2023-11-21T13:33:38;7.90;99.90
46029;DHT22;31763;48.180;7.904;2023-11-21T13:36:07;7.90;99.90
46029;DHT22;31763;48.180;7.904;2023-11-21T13:38:37;7.80;99.90
46029;DHT22;31763;48.180;7.904;2023-11-21T13:41:08;7.80;99.90
46029;DHT22;31763;48.180;7.904;2023-11-21T13:43:37;7.80;99.90
46029;DHT22;31763;48.180;7.904;2023-11-21T13:46:05;7.70;99.90
46029;DHT22;31763;48.180;7.904;2023-11-21T13:48:41;7.70;99.90
46029;DHT22;31763;48.180;7.904;2023-11-21T13:51:18;7.60;99.90
46029;DHT22;31763;48.180;7.904;2023-11-21T13:53:46;7.50;99.90
46029;DHT22;31763;48.180;7.904;2023-11-21T13:56:19;7.60;99.90
46029;DHT22;31763;48.180;7.904;2023-11-21T13:58:51;7.50;99.90
46029;DHT22;31763;48.180;7.904;2023-11-21T14:01:20;7.60;99.90
46029;DHT22;31763;48.180;7.904;2023-11-21T14:03:58;7.50;99.90
46029;DHT22;31763;48.180;7.904;2023-11-21T14:06:40;7.60;99.90
46029;DHT22;31763;48.180;7.904;2023-11-21T14:09:15;7.60;99.90
46029;DHT22;31763;48.180;7.904;2023-11-21T14:11:54;7.50;99.90
46029;DHT22;31763;48.180;7.904;2023-11-21T14:14:24;7.50;99.90
46029;DHT22;31763;48.180;7.904;2023-11-21T14:16:52;7.50;99.90
46029;DHT22;31763;48.180;7.904;2023-11-21T14:19:19;7.60;99.90
46029;DHT22;31763;48.180;7.904;2023-11-21T14:21:47;7.50;99.90
46029;DHT22;31763;48.180;7.904;2023-11-21T14:24:17;7.40;99.90
46029;DHT22;31763;48.180;7.904;2023-11-21T14:26:46;7.40;99.90
46029;DHT22;31763;48.180;7.904;2023-11-21T14:29:14;7.50;99.90
46029;DHT22;31763;48.180;7.904;2023-11-21T14:31:47;7.50;99.90
46029;DHT22;31763;48.180;7.904;2023-11-21T14:34:14;7.50;99.90
46029;DHT22;31763;48.180;7.904;2023-11-21T14:36:46;7.50;99.90
46029;DHT22;31763;48.180;7.904;2023-11-21T14:39:12;7.50;99.90
46029;DHT22;31763;48.180;7.904;2023-11-21T14:41:50;7.50;99.90
46029;DHT22;31763;48.180;7.904;2023-11-21T14:44:19;7.40;99.90
46029;DHT22;31763;48.180;7.904;2023-11-21T14:46:47;7.40;99.90
46029;DHT22;31763;48.180;7.904;2023-11-21T14:49:17;7.30;99.90
46029;DHT22;31763;48.180;7.904;2023-11-21T14:51:48;7.40;99.90
46029;DHT22;31763;48.180;7.904;2023-11-21T14:54:31;7.30;99.90
46029;DHT22;31763;48.180;7.904;2023-11-21T14:57:09;7.20;99.90
46029;DHT22;31763;48.180;7.904;2023-11-21T14:59:44;7.20;99.90
46029;DHT22;31763;48.180;7.904;2023-11-21T15:02:19;7.20;99.90
46029;DHT22;31763;48.180;7.904;2023-11-21T15:05:10;7.10;99.90
46029;DHT22;31763;48.180;7.904;2023-11-21T15:07:41;7.10;99.90
46029;DHT22;31763;48.180;7.904;2023-11-21T15:10:10;7.00;99.90
46029;DHT22;31763;48.180;7.904;2023-11-21T15:12:38;7.10;99.90
46029;DHT22;31763;48.180;7.904;2023-11-21T15:15:06;7.10;99.90
46029;DHT22;31763;48.180;7.904;2023-11-21T15:17:37;7.10;99.90
46029;DHT22;31763;48.180;7.904;2023-11-21T15:20:05;7.10;99.90
46029;DHT22;31763;48.180;7.904;2023-11-21T15:22:34;7.10;99.90
46029;DHT22;31763;48.180;7.904;2023-11-21T15:25:01;7.20;99.90
46029;DHT22;31763;48.180;7.904;2023-11-21T15:27:34;7.20;99.90
46029;DHT22;31763;48.180;7.904;2023-11-21T15:30:01;7.00;99.90
46029;DHT22;31763;48.180;7.904;2023-11-21T15:32:29;7.10;99.90
46029;DHT22;31763;48.180;7.904;2023-11-21T15:34:57;7.10;99.90
46029;DHT22;31763;48.180;7.904;2023-11-21T15:37:23;7.10;99.90
46029;DHT22;31763;48.180;7.904;2023-11-21T15:39:52;7.00;99.90
46029;DHT22;31763;48.180;7.904;2023-11-21T15:42:19;7.00;99.90
46029;DHT22;31763;48.180;7.904;2023-11-21T15:44:46;7.00;99.90
46029;DHT22;31763;48.180;7.904;2023-11-21T15:47:13;7.00;99.90
46029;DHT22;31763;48.180;7.904;2023-11-21T15:49:40;7.00;99.90
46029;DHT22;31763;48.180;7.904;2023-11-21T15:52:07;7.00;99.90
46029;DHT22;31763;48.180;7.904;2023-11-21T15:54:37;7.00;99.90
46029;DHT22;31763;48.180;7.904;2023-11-21T15:57:05;7.00;99.90
46029;DHT22;31763;48.180;7.904;2023-11-21T15:59:32;7.00;99.90
46029;DHT22;31763;48.180;7.904;2023-11-21T16:02:01;7.00;99.90
46029;DHT22;31763;48.180;7.904;2023-11-21T16:04:32;7.00;99.90
46029;DHT22;31763;48.180;7.904;2023-11-21T16:06:59;7.00;99.90
46029;DHT22;31763;48.180;7.904;2023-11-21T16:09:26;7.00;99.90
46029;DHT22;31763;48.180;7.904;2023-11-21T16:12:01;7.00;99.90
46029;DHT22;31763;48.180;7.904;2023-11-21T16:14:32;7.00;99.90
46029;DHT22;31763;48.180;7.904;2023-11-21T16:17:08;7.00;99.90
46029;DHT22;31763;48.180;7.904;2023-11-21T16:19:38;7.00;99.90